createdAt,value
2022-08-03T00:00:06.472Z,20.98
2022-08-03T00:01:06.889Z,20.96
2022-08-03T00:02:06.449Z,20.99
2022-08-03T00:03:06.532Z,20.96
2022-08-03T00:04:06.442Z,20.98
2022-08-03T00:05:06.405Z,20.93
2022-08-03T00:06:06.379Z,20.95
2022-08-03T00:07:06.368Z,20.91
2022-08-03T00:08:06.748Z,20.90
2022-08-03T00:09:06.344Z,20.86
2022-08-03T00:10:06.426Z,20.86
2022-08-03T00:11:06.339Z,20.81
2022-08-03T00:12:06.333Z,20.80
2022-08-03T00:13:06.312Z,20.79
2022-08-03T00:14:06.303Z,20.77
2022-08-03T00:15:10.378Z,20.77
2022-08-03T00:16:06.317Z,20.74
2022-08-03T00:17:06.257Z,20.74
2022-08-03T00:18:06.270Z,20.74
2022-08-03T00:19:06.247Z,20.76
2022-08-03T00:20:06.223Z,20.76
2022-08-03T00:21:06.205Z,20.74
2022-08-03T00:22:06.693Z,20.74
2022-08-03T00:23:06.184Z,20.72
2022-08-03T00:24:06.183Z,20.72
2022-08-03T00:25:06.166Z,20.72
2022-08-03T00:26:06.168Z,20.74
2022-08-03T00:27:06.154Z,20.76
2022-08-03T00:28:06.168Z,20.77
2022-08-03T00:29:06.468Z,20.81
2022-08-03T00:30:06.125Z,20.81
2022-08-03T00:31:06.103Z,20.83
2022-08-03T00:32:06.092Z,20.81
2022-08-03T00:33:06.073Z,20.80
2022-08-03T00:34:06.876Z,20.81
2022-08-03T00:35:09.838Z,20.84
2022-08-03T00:36:06.078Z,20.89
2022-08-03T00:37:06.040Z,20.87
2022-08-03T00:38:06.063Z,20.89
2022-08-03T00:39:06.006Z,20.89
2022-08-03T00:40:06.033Z,20.90
2022-08-03T00:41:05.993Z,20.89
2022-08-03T00:42:06.350Z,20.90
2022-08-03T00:43:06.000Z,20.89
2022-08-03T00:44:05.969Z,20.91
2022-08-03T00:45:05.959Z,20.89
2022-08-03T00:46:05.999Z,20.87
2022-08-03T00:47:05.928Z,20.84
2022-08-03T00:48:05.928Z,20.83
2022-08-03T00:49:05.973Z,20.79
2022-08-03T00:50:05.906Z,20.76
2022-08-03T00:51:05.893Z,20.76
2022-08-03T00:52:07.736Z,20.74
2022-08-03T00:53:05.863Z,20.72
2022-08-03T00:54:05.861Z,20.69
2022-08-03T00:55:06.231Z,20.66
2022-08-03T00:56:05.844Z,20.66
2022-08-03T00:57:05.816Z,20.65
2022-08-03T00:58:05.845Z,20.62
2022-08-03T00:59:05.792Z,20.61
2022-08-03T01:00:05.845Z,20.61
2022-08-03T01:01:05.828Z,20.54
2022-08-03T01:02:08.141Z,20.54
2022-08-03T01:03:05.745Z,20.51
2022-08-03T01:04:05.819Z,20.50
2022-08-03T01:05:05.739Z,20.49
2022-08-03T01:06:05.734Z,20.46
2022-08-03T01:07:05.988Z,20.43
2022-08-03T01:08:05.716Z,20.42
2022-08-03T01:09:06.134Z,20.38
2022-08-03T01:10:05.712Z,20.39
2022-08-03T01:11:05.677Z,20.34
2022-08-03T01:12:06.411Z,20.34
2022-08-03T01:13:05.638Z,20.33
2022-08-03T01:14:18.820Z,20.33
2022-08-03T01:15:05.639Z,20.30
2022-08-03T01:16:06.049Z,20.30
2022-08-03T01:17:05.635Z,20.25
2022-08-03T01:18:05.614Z,20.25
2022-08-03T01:19:05.583Z,20.25
2022-08-03T01:20:05.588Z,20.24
2022-08-03T01:21:05.557Z,20.24
2022-08-03T01:22:05.621Z,20.20
2022-08-03T01:23:06.019Z,20.20
2022-08-03T01:24:05.531Z,20.18
2022-08-03T01:25:05.519Z,20.20
2022-08-03T01:26:05.528Z,20.15
2022-08-03T01:27:05.528Z,20.12
2022-08-03T01:28:05.532Z,20.12
2022-08-03T01:29:05.481Z,20.12
2022-08-03T01:30:05.875Z,20.10
2022-08-03T01:31:05.444Z,20.10
2022-08-03T01:32:53.230Z,20.06
2022-08-03T01:33:05.695Z,20.05
2022-08-03T01:34:05.464Z,20.05
2022-08-03T01:35:05.404Z,20.05
2022-08-03T01:36:05.426Z,20.02
2022-08-03T01:37:05.699Z,20.02
2022-08-03T01:38:05.401Z,19.98
2022-08-03T01:39:05.354Z,19.98
2022-08-03T01:40:05.389Z,19.95
2022-08-03T01:41:05.337Z,19.93
2022-08-03T01:42:05.350Z,19.91
2022-08-03T01:43:05.732Z,19.93
2022-08-03T01:44:29.111Z,19.91
2022-08-03T01:45:05.306Z,19.93
2022-08-03T01:46:05.333Z,19.90
2022-08-03T01:47:05.290Z,19.90
2022-08-03T01:48:05.296Z,19.91
2022-08-03T01:49:09.354Z,19.93
2022-08-03T01:50:05.249Z,19.90
2022-08-03T01:51:05.223Z,19.88
2022-08-03T01:52:05.594Z,19.88
2022-08-03T01:53:05.210Z,19.90
2022-08-03T01:54:05.205Z,19.86
2022-08-03T01:55:05.190Z,19.84
2022-08-03T01:56:06.643Z,19.83
2022-08-03T01:57:05.174Z,19.83
2022-08-03T01:58:06.794Z,19.80
2022-08-03T01:59:05.150Z,19.79
2022-08-03T02:00:05.137Z,19.80
2022-08-03T02:01:05.249Z,19.83
2022-08-03T02:02:29.117Z,19.83
2022-08-03T02:03:05.108Z,19.80
2022-08-03T02:04:05.186Z,19.83
2022-08-03T02:05:05.078Z,19.83
2022-08-03T02:07:00.366Z,19.79
2022-08-03T02:07:07.632Z,19.78
2022-08-03T02:08:05.497Z,19.78
2022-08-03T02:09:05.036Z,19.78
2022-08-03T02:10:05.100Z,19.75
2022-08-03T02:11:05.025Z,19.73
2022-08-03T02:12:04.995Z,19.73
2022-08-03T02:13:04.981Z,19.73
2022-08-03T02:14:04.989Z,19.73
2022-08-03T02:15:05.364Z,19.72
2022-08-03T02:16:05.022Z,19.70
2022-08-03T02:17:04.968Z,19.69
2022-08-03T02:18:04.948Z,19.68
2022-08-03T02:19:04.917Z,19.68
2022-08-03T02:20:04.916Z,19.68
2022-08-03T02:21:10.880Z,19.66
2022-08-03T02:22:04.933Z,19.65
2022-08-03T02:23:04.888Z,19.65
2022-08-03T02:24:04.880Z,19.63
2022-08-03T02:25:04.859Z,19.68
2022-08-03T02:26:04.867Z,19.66
2022-08-03T02:27:04.861Z,19.68
2022-08-03T02:28:05.310Z,19.65
2022-08-03T02:29:04.805Z,19.65
2022-08-03T02:30:04.803Z,19.63
2022-08-03T02:31:04.797Z,19.63
2022-08-03T02:32:04.783Z,19.63
2022-08-03T02:33:04.786Z,19.60
2022-08-03T02:34:04.825Z,19.57
2022-08-03T02:35:05.063Z,19.55
2022-08-03T02:36:04.743Z,19.55
2022-08-03T02:37:04.727Z,19.54
2022-08-03T02:38:04.723Z,19.54
2022-08-03T02:39:04.695Z,19.53
2022-08-03T02:40:04.770Z,19.51
2022-08-03T02:41:04.681Z,19.50
2022-08-03T02:42:05.108Z,19.50
2022-08-03T02:43:04.688Z,19.47
2022-08-03T02:44:06.127Z,19.50
2022-08-03T02:45:04.636Z,19.51
2022-08-03T02:46:04.656Z,19.51
2022-08-03T02:47:04.610Z,19.50
2022-08-03T02:48:04.618Z,19.51
2022-08-03T02:49:49.927Z,19.51
2022-08-03T02:50:04.650Z,19.50
2022-08-03T02:51:04.573Z,19.50
2022-08-03T02:52:04.605Z,19.53
2022-08-03T02:53:04.565Z,19.50
2022-08-03T02:54:04.563Z,19.51
2022-08-03T02:55:04.530Z,19.50
2022-08-03T02:56:04.998Z,19.50
2022-08-03T02:57:04.504Z,19.46
2022-08-03T02:58:04.547Z,19.46
2022-08-03T02:59:04.497Z,19.46
2022-08-03T03:00:04.477Z,19.43
2022-08-03T03:01:04.551Z,19.40
2022-08-03T03:02:04.461Z,19.38
2022-08-03T03:03:04.844Z,19.36
2022-08-03T03:04:04.453Z,19.36
2022-08-03T03:05:52.448Z,19.36
2022-08-03T03:06:05.581Z,19.35
2022-08-03T03:07:04.671Z,19.35
2022-08-03T03:08:04.393Z,19.33
2022-08-03T03:09:04.402Z,19.32
2022-08-03T03:10:04.737Z,19.33
2022-08-03T03:11:04.355Z,19.35
2022-08-03T03:12:04.357Z,19.32
2022-08-03T03:13:04.330Z,19.32
2022-08-03T03:14:04.366Z,19.29
2022-08-03T03:15:04.339Z,19.29
2022-08-03T03:16:04.358Z,19.29
2022-08-03T03:17:04.732Z,19.24
2022-08-03T03:18:04.282Z,19.25
2022-08-03T03:19:04.278Z,19.24
2022-08-03T03:20:04.259Z,19.21
2022-08-03T03:21:04.249Z,19.24
2022-08-03T03:22:04.262Z,19.23
2022-08-03T03:23:04.230Z,19.21
2022-08-03T03:24:04.570Z,19.21
2022-08-03T03:25:04.217Z,19.18
2022-08-03T03:26:04.190Z,19.18
2022-08-03T03:27:04.191Z,19.18
2022-08-03T03:28:04.946Z,19.18
2022-08-03T03:29:04.154Z,19.17
2022-08-03T03:30:04.156Z,19.18
2022-08-03T03:31:04.627Z,19.21
2022-08-03T03:32:04.169Z,19.20
2022-08-03T03:33:04.127Z,19.21
2022-08-03T03:34:04.130Z,19.21
2022-08-03T03:35:04.107Z,19.24
2022-08-03T03:36:04.229Z,19.23
2022-08-03T03:37:04.072Z,19.24
2022-08-03T03:38:04.469Z,19.23
2022-08-03T03:39:15.427Z,19.24
2022-08-03T03:40:04.073Z,19.24
2022-08-03T03:41:04.026Z,19.24
2022-08-03T03:42:04.050Z,19.25
2022-08-03T03:43:03.998Z,19.25
2022-08-03T03:44:03.994Z,19.23
2022-08-03T03:45:04.304Z,19.21
2022-08-03T03:46:03.992Z,19.21
2022-08-03T03:47:03.965Z,19.21
2022-08-03T03:48:03.942Z,19.18
2022-08-03T03:49:04.011Z,19.18
2022-08-03T03:50:03.919Z,19.18
2022-08-03T03:51:03.919Z,19.17
2022-08-03T03:52:04.419Z,19.17
2022-08-03T03:53:03.903Z,19.17
2022-08-03T03:54:03.909Z,19.17
2022-08-03T03:55:03.877Z,19.15
2022-08-03T03:56:03.854Z,19.15
2022-08-03T03:57:03.862Z,19.14
2022-08-03T03:58:03.931Z,19.14
2022-08-03T03:59:04.199Z,19.15
2022-08-03T04:00:03.818Z,19.18
2022-08-03T04:01:03.943Z,19.17
2022-08-03T04:02:03.791Z,19.18
2022-08-03T04:03:03.800Z,19.20
2022-08-03T04:04:03.814Z,19.18
2022-08-03T04:05:03.766Z,19.20
2022-08-03T04:06:04.056Z,19.20
2022-08-03T04:07:03.736Z,19.18
2022-08-03T04:08:03.735Z,19.20
2022-08-03T04:09:03.717Z,19.20
2022-08-03T04:10:14.433Z,19.18
2022-08-03T04:11:03.704Z,19.17
2022-08-03T04:12:03.685Z,19.18
2022-08-03T04:13:05.126Z,19.18
2022-08-03T04:14:03.665Z,19.20
2022-08-03T04:15:03.651Z,19.23
2022-08-03T04:16:03.712Z,19.25
2022-08-03T04:17:03.651Z,19.25
2022-08-03T04:18:03.614Z,19.29
2022-08-03T04:19:03.608Z,19.29
2022-08-03T04:20:04.130Z,19.29
2022-08-03T04:21:03.607Z,19.29
2022-08-03T04:22:03.606Z,19.32
2022-08-03T04:23:03.590Z,19.33
2022-08-03T04:24:03.556Z,19.33
2022-08-03T04:25:03.551Z,19.33
2022-08-03T04:26:03.531Z,19.36
2022-08-03T04:27:03.999Z,19.35
2022-08-03T04:28:07.982Z,19.39
2022-08-03T04:29:03.512Z,19.40
2022-08-03T04:30:03.484Z,19.40
2022-08-03T04:31:03.482Z,19.42
2022-08-03T04:32:03.467Z,19.42
2022-08-03T04:33:03.468Z,19.42
2022-08-03T04:34:03.874Z,19.46
2022-08-03T04:35:03.433Z,19.46
2022-08-03T04:36:03.928Z,19.46
2022-08-03T04:37:03.410Z,19.47
2022-08-03T04:38:03.399Z,19.48
2022-08-03T04:39:03.391Z,19.48
2022-08-03T04:40:03.399Z,19.50
2022-08-03T04:41:04.690Z,19.48
2022-08-03T04:42:08.594Z,19.50
2022-08-03T04:43:03.352Z,19.50
2022-08-03T04:44:03.371Z,19.53
2022-08-03T04:45:03.332Z,19.50
2022-08-03T04:46:03.338Z,19.53
2022-08-03T04:47:03.300Z,19.53
2022-08-03T04:48:03.706Z,19.54
2022-08-03T04:49:03.338Z,19.57
2022-08-03T04:50:03.262Z,19.54
2022-08-03T04:51:03.259Z,19.57
2022-08-03T04:52:03.266Z,19.57
2022-08-03T04:53:03.240Z,19.58
2022-08-03T04:54:03.228Z,19.60
2022-08-03T04:55:03.554Z,19.63
2022-08-03T04:56:03.231Z,19.63
2022-08-03T04:57:03.195Z,19.66
2022-08-03T04:58:03.215Z,19.66
2022-08-03T04:59:03.179Z,19.70
2022-08-03T05:00:03.801Z,19.70
2022-08-03T05:01:03.156Z,19.75
2022-08-03T05:02:03.675Z,19.75
2022-08-03T05:03:03.137Z,19.78
2022-08-03T05:04:03.151Z,19.78
2022-08-03T05:05:03.109Z,19.79
2022-08-03T05:06:11.012Z,19.84
2022-08-03T05:07:11.603Z,19.83
2022-08-03T05:08:03.377Z,19.86
2022-08-03T05:09:03.553Z,19.86
2022-08-03T05:10:03.547Z,19.88
2022-08-03T05:11:03.060Z,19.91
2022-08-03T05:12:03.029Z,19.93
2022-08-03T05:13:03.031Z,19.95
2022-08-03T05:14:03.030Z,20.00
2022-08-03T05:15:03.040Z,20.00
2022-08-03T05:16:03.445Z,20.05
2022-08-03T05:17:02.985Z,20.05
2022-08-03T05:18:02.999Z,20.09
2022-08-03T05:19:02.966Z,20.12
2022-08-03T05:20:02.945Z,20.12
2022-08-03T05:21:02.990Z,20.15
2022-08-03T05:22:02.974Z,20.16
2022-08-03T05:23:03.256Z,20.18
2022-08-03T05:24:02.903Z,20.21
2022-08-03T05:25:02.899Z,20.23
2022-08-03T05:26:02.885Z,20.25
2022-08-03T05:27:02.887Z,20.28
2022-08-03T05:28:02.933Z,20.33
2022-08-03T05:29:02.874Z,20.33
2022-08-03T05:30:30.393Z,20.38
2022-08-03T05:31:02.844Z,20.42
2022-08-03T05:32:08.034Z,20.47
2022-08-03T05:33:02.822Z,20.49
2022-08-03T05:34:02.821Z,20.51
2022-08-03T05:35:56.847Z,20.56
2022-08-03T05:36:07.828Z,20.61
2022-08-03T05:37:02.773Z,20.64
2022-08-03T05:38:02.782Z,20.68
2022-08-03T05:39:03.080Z,20.72
2022-08-03T05:40:02.790Z,20.72
2022-08-03T05:41:21.154Z,20.76
2022-08-03T05:42:02.717Z,20.81
2022-08-03T05:43:03.166Z,20.84
2022-08-03T05:44:02.693Z,20.87
2022-08-03T05:45:02.681Z,20.91
2022-08-03T05:46:11.904Z,20.95
2022-08-03T05:47:02.675Z,20.98
2022-08-03T05:48:02.644Z,21.01
2022-08-03T05:49:03.067Z,21.04
2022-08-03T05:50:02.623Z,21.06
2022-08-03T05:51:02.642Z,21.11
2022-08-03T05:52:15.647Z,21.13
2022-08-03T05:53:02.610Z,21.14
2022-08-03T05:54:02.595Z,21.17
2022-08-03T05:55:02.589Z,21.20
2022-08-03T05:56:13.354Z,21.23
2022-08-03T05:57:02.597Z,21.27
2022-08-03T05:58:02.583Z,21.32
2022-08-03T05:59:22.503Z,21.35
2022-08-03T06:00:02.569Z,21.36
2022-08-03T06:01:02.917Z,21.39
2022-08-03T06:02:02.590Z,21.45
2022-08-03T06:03:02.515Z,21.50
2022-08-03T06:04:02.524Z,21.53
2022-08-03T06:05:02.538Z,21.60
2022-08-03T06:06:02.534Z,21.64
2022-08-03T06:07:02.456Z,21.69
2022-08-03T06:08:02.915Z,21.76
2022-08-03T06:09:02.439Z,21.81
2022-08-03T06:10:36.858Z,21.88
2022-08-03T06:11:02.425Z,21.95
2022-08-03T06:12:02.409Z,22.17
2022-08-03T06:13:02.395Z,22.57
2022-08-03T06:14:02.405Z,22.93
2022-08-03T06:15:02.760Z,23.31
2022-08-03T06:16:02.392Z,23.61
2022-08-03T06:17:02.366Z,23.75
2022-08-03T06:18:02.422Z,23.92
2022-08-03T06:19:02.332Z,24.14
2022-08-03T06:20:02.312Z,24.27
2022-08-03T06:21:14.495Z,24.54
2022-08-03T06:22:02.343Z,24.67
2022-08-03T06:23:02.287Z,24.61
2022-08-03T06:24:02.592Z,24.92
2022-08-03T06:25:04.900Z,25.07
2022-08-03T06:26:02.259Z,25.24
2022-08-03T06:27:02.258Z,25.35
2022-08-03T06:28:02.699Z,25.42
2022-08-03T06:29:03.820Z,25.52
2022-08-03T06:30:02.227Z,25.52
2022-08-03T06:31:02.206Z,25.56
2022-08-03T06:32:02.201Z,26.02
2022-08-03T06:33:02.200Z,26.29
2022-08-03T06:34:32.839Z,26.64
2022-08-03T06:35:02.171Z,26.76
2022-08-03T06:36:02.166Z,26.55
2022-08-03T06:37:02.503Z,26.68
2022-08-03T06:38:02.143Z,26.77
2022-08-03T06:39:02.156Z,27.04
2022-08-03T06:40:02.136Z,27.19
2022-08-03T06:41:02.541Z,27.53
2022-08-03T06:42:02.127Z,27.53
2022-08-03T06:43:02.082Z,27.51
2022-08-03T06:44:03.999Z,27.36
2022-08-03T06:45:02.064Z,27.19
2022-08-03T06:46:02.092Z,27.42
2022-08-03T06:47:02.071Z,27.23
2022-08-03T06:48:02.372Z,27.23
2022-08-03T06:49:02.111Z,27.29
2022-08-03T06:50:16.313Z,27.31
2022-08-03T06:51:02.050Z,27.23
2022-08-03T06:52:06.107Z,27.71
2022-08-03T06:53:01.996Z,28.16
2022-08-03T06:54:01.977Z,28.63
2022-08-03T06:55:02.413Z,28.96
2022-08-03T06:56:01.978Z,29.18
2022-08-03T06:57:01.975Z,29.50
2022-08-03T06:58:03.580Z,29.60
2022-08-03T06:59:01.936Z,29.56
2022-08-03T07:00:06.042Z,29.23
2022-08-03T07:01:01.985Z,28.81
2022-08-03T07:02:01.891Z,28.44
2022-08-03T07:03:02.382Z,28.46
2022-08-03T07:04:01.912Z,28.91
2022-08-03T07:05:01.882Z,29.53
2022-08-03T07:06:01.873Z,29.57
2022-08-03T07:07:01.872Z,29.66
2022-08-03T07:08:01.874Z,29.43
2022-08-03T07:09:01.859Z,29.35
2022-08-03T07:10:03.334Z,29.29
2022-08-03T07:11:01.859Z,29.66
2022-08-03T07:12:01.811Z,30.00
2022-08-03T07:13:01.823Z,30.40
2022-08-03T07:14:01.816Z,30.53
2022-08-03T07:15:03.179Z,30.87
2022-08-03T07:16:01.808Z,31.08
2022-08-03T07:17:11.408Z,30.98
2022-08-03T07:18:01.760Z,30.67
2022-08-03T07:19:01.747Z,30.14
2022-08-03T07:20:01.766Z,30.18
2022-08-03T07:21:01.762Z,30.33
2022-08-03T07:22:02.136Z,30.56
2022-08-03T07:23:01.739Z,30.71
2022-08-03T07:24:02.105Z,30.56
2022-08-03T07:25:02.644Z,30.23
2022-08-03T07:26:01.725Z,29.78
2022-08-03T07:27:01.709Z,29.68
2022-08-03T07:28:01.711Z,29.68
2022-08-03T07:29:01.675Z,29.47
2022-08-03T07:30:01.686Z,29.47
2022-08-03T07:31:01.947Z,29.43
2022-08-03T07:32:01.632Z,29.23
2022-08-03T07:33:01.638Z,29.26
2022-08-03T07:34:01.671Z,29.45
2022-08-03T07:35:01.876Z,29.59
2022-08-03T07:36:01.605Z,29.75
2022-08-03T07:37:01.612Z,30.05
2022-08-03T07:38:02.023Z,30.30
2022-08-03T07:39:01.590Z,30.59
2022-08-03T07:40:01.653Z,30.83
2022-08-03T07:41:01.556Z,30.76
2022-08-03T07:42:01.608Z,30.93
2022-08-03T07:43:01.558Z,31.04
2022-08-03T07:44:01.563Z,31.05
2022-08-03T07:45:01.862Z,31.04
2022-08-03T07:46:01.571Z,30.45
2022-08-03T07:47:03.410Z,29.82
2022-08-03T07:48:01.510Z,29.60
2022-08-03T07:49:01.533Z,29.35
2022-08-03T07:50:01.538Z,29.43
2022-08-03T07:51:01.485Z,29.33
2022-08-03T07:52:01.977Z,29.10
2022-08-03T07:53:01.487Z,29.13
2022-08-03T07:54:01.512Z,29.38
2022-08-03T07:55:01.437Z,29.74
2022-08-03T07:56:01.442Z,29.86
2022-08-03T07:57:01.429Z,29.87
2022-08-03T07:58:01.448Z,29.78
2022-08-03T07:59:01.408Z,29.56
2022-08-03T08:00:02.596Z,29.57
2022-08-03T08:01:01.439Z,29.59
2022-08-03T08:02:01.383Z,29.75
2022-08-03T08:03:01.391Z,29.89
2022-08-03T08:04:01.403Z,29.82
2022-08-03T08:05:05.558Z,29.75
2022-08-03T08:06:01.353Z,29.93
2022-08-03T08:07:01.354Z,29.96
2022-08-03T08:08:01.336Z,29.89
2022-08-03T08:09:01.319Z,29.68
2022-08-03T08:10:01.389Z,29.60
2022-08-03T08:11:01.817Z,29.41
2022-08-03T08:12:01.323Z,29.35
2022-08-03T08:13:01.292Z,29.49
2022-08-03T08:14:01.273Z,29.72
2022-08-03T08:15:01.262Z,30.03
2022-08-03T08:16:01.321Z,30.43
2022-08-03T08:17:04.446Z,30.61
2022-08-03T08:18:01.263Z,30.65
2022-08-03T08:19:01.237Z,30.69
2022-08-03T08:20:01.230Z,30.80
2022-08-03T08:21:01.218Z,30.83
2022-08-03T08:22:02.373Z,30.99
2022-08-03T08:23:02.132Z,30.75
2022-08-03T08:24:01.192Z,30.64
2022-08-03T08:25:01.615Z,30.67
2022-08-03T08:26:01.178Z,30.69
2022-08-03T08:27:01.180Z,30.74
2022-08-03T08:28:29.064Z,30.76
2022-08-03T08:29:01.156Z,30.86
2022-08-03T08:30:10.384Z,30.81
2022-08-03T08:31:01.144Z,30.69
2022-08-03T08:32:01.126Z,30.36
2022-08-03T08:33:01.107Z,30.19
2022-08-03T08:34:03.946Z,30.15
2022-08-03T08:35:01.100Z,30.15
2022-08-03T08:36:01.107Z,30.31
2022-08-03T08:37:01.371Z,30.30
2022-08-03T08:38:05.553Z,30.33
2022-08-03T08:39:01.063Z,30.15
2022-08-03T08:40:01.085Z,30.03
2022-08-03T08:41:01.042Z,29.97
2022-08-03T08:42:01.163Z,29.81
2022-08-03T08:43:01.029Z,29.77
2022-08-03T08:44:01.421Z,29.82
2022-08-03T08:45:01.000Z,29.96
2022-08-03T08:46:01.079Z,30.00
2022-08-03T08:47:00.978Z,30.08
2022-08-03T08:48:03.534Z,30.19
2022-08-03T08:49:01.029Z,30.07
2022-08-03T08:50:09.684Z,30.09
2022-08-03T08:51:00.945Z,30.19
2022-08-03T08:52:01.664Z,30.34
2022-08-03T08:53:00.923Z,30.29
2022-08-03T08:54:00.922Z,30.26
2022-08-03T08:55:00.911Z,30.50
2022-08-03T08:56:01.464Z,30.69
2022-08-03T08:57:00.890Z,30.65
2022-08-03T08:58:00.917Z,30.67
2022-08-03T08:59:00.909Z,30.18
2022-08-03T09:00:00.870Z,30.24
2022-08-03T09:01:00.926Z,30.38
2022-08-03T09:02:00.846Z,30.46
2022-08-03T09:03:01.132Z,30.43
2022-08-03T09:04:00.852Z,30.31
2022-08-03T09:05:05.287Z,30.16
2022-08-03T09:06:00.864Z,30.03
2022-08-03T09:07:19.153Z,29.81
2022-08-03T09:08:00.789Z,29.65
2022-08-03T09:09:00.774Z,29.47
2022-08-03T09:10:12.267Z,29.41
2022-08-03T09:11:00.752Z,29.33
2022-08-03T09:12:20.037Z,29.44
2022-08-03T09:13:00.747Z,29.50
2022-08-03T09:14:00.745Z,29.66
2022-08-03T09:15:16.405Z,29.63
2022-08-03T09:16:01.610Z,29.68
2022-08-03T09:17:01.024Z,29.70
2022-08-03T09:18:00.692Z,29.57
2022-08-03T09:19:00.708Z,29.72
2022-08-03T09:20:03.424Z,29.81
2022-08-03T09:21:18.942Z,29.78
2022-08-03T09:22:00.690Z,29.86
2022-08-03T09:23:00.642Z,29.81
2022-08-03T09:24:03.355Z,29.68
2022-08-03T09:25:22.667Z,29.78
2022-08-03T09:26:00.702Z,29.97
2022-08-03T09:27:00.619Z,30.29
2022-08-03T09:28:01.222Z,30.47
2022-08-03T09:29:05.708Z,30.54
2022-08-03T09:30:00.593Z,30.59
2022-08-03T09:31:00.928Z,30.75
2022-08-03T09:32:00.603Z,30.84
2022-08-03T09:33:00.545Z,30.89
2022-08-03T09:34:00.667Z,31.06
2022-08-03T09:35:00.569Z,31.23
2022-08-03T09:36:00.555Z,31.33
2022-08-03T09:37:00.539Z,31.30
2022-08-03T09:38:12.387Z,31.08
2022-08-03T09:39:00.495Z,31.08
2022-08-03T09:40:00.540Z,30.99
2022-08-03T09:41:01.075Z,30.87
2022-08-03T09:42:00.478Z,30.84
2022-08-03T09:43:00.465Z,30.72
2022-08-03T09:44:00.442Z,30.74
2022-08-03T09:45:00.818Z,30.80
2022-08-03T09:46:00.484Z,30.86
2022-08-03T09:47:00.409Z,30.81
2022-08-03T09:48:00.420Z,30.57
2022-08-03T09:49:00.448Z,30.49
2022-08-03T09:50:00.388Z,30.40
2022-08-03T09:51:12.847Z,30.37
2022-08-03T09:52:31.569Z,30.31
2022-08-03T09:53:00.373Z,30.29
2022-08-03T09:54:00.585Z,30.12
2022-08-03T09:55:00.359Z,30.02
2022-08-03T09:56:33.599Z,29.94
2022-08-03T09:57:00.317Z,29.89
2022-08-03T09:58:00.793Z,29.86
2022-08-03T09:59:00.292Z,29.84
2022-08-03T10:00:04.427Z,29.75
2022-08-03T10:01:00.402Z,29.63
2022-08-03T10:02:00.273Z,29.57
2022-08-03T10:03:00.280Z,29.49
2022-08-03T10:04:03.276Z,29.40
2022-08-03T10:05:00.255Z,29.44
2022-08-03T10:06:00.334Z,29.47
2022-08-03T10:07:00.249Z,29.56
2022-08-03T10:08:00.240Z,29.74
2022-08-03T10:09:00.204Z,29.71
2022-08-03T10:10:31.110Z,29.66
2022-08-03T10:11:00.202Z,29.79
2022-08-03T10:12:00.209Z,29.94
2022-08-03T10:13:00.287Z,30.03
2022-08-03T10:14:01.626Z,30.21
2022-08-03T10:15:00.150Z,30.29
2022-08-03T10:16:22.719Z,30.07
2022-08-03T10:17:00.206Z,29.89
2022-08-03T10:18:00.132Z,29.78
2022-08-03T10:19:00.130Z,29.68
2022-08-03T10:20:00.135Z,29.70
2022-08-03T10:21:00.089Z,29.72
2022-08-03T10:22:00.729Z,29.68
2022-08-03T10:23:00.394Z,29.66
2022-08-03T10:24:00.104Z,29.78
2022-08-03T10:25:00.070Z,29.74
2022-08-03T10:26:00.058Z,29.74
2022-08-03T10:27:00.026Z,29.87
2022-08-03T10:28:00.133Z,30.14
2022-08-03T10:29:00.057Z,30.38
2022-08-03T10:30:00.436Z,30.47
2022-08-03T10:31:00.013Z,30.36
2022-08-03T10:31:59.993Z,30.37
2022-08-03T10:33:00.087Z,30.37
2022-08-03T10:34:00.047Z,30.49
2022-08-03T10:35:04.043Z,30.62
2022-08-03T10:36:00.058Z,30.65
2022-08-03T10:37:00.258Z,30.71
2022-08-03T10:37:59.946Z,30.78
2022-08-03T10:38:59.922Z,30.83
2022-08-03T10:40:00.009Z,30.84
2022-08-03T10:40:59.904Z,30.86
2022-08-03T10:42:02.448Z,30.80
2022-08-03T10:42:59.858Z,30.76
2022-08-03T10:43:59.923Z,30.72
2022-08-03T10:45:01.146Z,30.74
2022-08-03T10:45:59.946Z,30.67
2022-08-03T10:46:59.864Z,30.75
2022-08-03T10:47:59.861Z,30.81
2022-08-03T10:48:59.882Z,31.08
2022-08-03T10:49:59.874Z,31.15
2022-08-03T10:50:59.795Z,31.30
2022-08-03T10:51:59.845Z,31.17
2022-08-03T10:53:01.983Z,31.08
2022-08-03T10:53:59.767Z,30.93
2022-08-03T10:54:59.771Z,30.64
2022-08-03T10:56:00.161Z,30.40
2022-08-03T10:57:01.099Z,30.27
2022-08-03T10:57:59.772Z,30.08
2022-08-03T10:58:59.745Z,30.07
2022-08-03T10:59:59.724Z,30.33
2022-08-03T11:00:59.771Z,30.65
2022-08-03T11:02:00.770Z,30.80
2022-08-03T11:03:00.056Z,30.94
2022-08-03T11:03:59.765Z,31.15
2022-08-03T11:04:59.686Z,31.28
2022-08-03T11:05:59.674Z,31.33
2022-08-03T11:06:59.660Z,31.54
2022-08-03T11:07:59.651Z,31.60
2022-08-03T11:08:59.627Z,31.72
2022-08-03T11:10:00.159Z,31.88
2022-08-03T11:10:59.652Z,31.92
2022-08-03T11:11:59.603Z,31.96
2022-08-03T11:12:59.610Z,32.02
2022-08-03T11:13:59.753Z,31.98
2022-08-03T11:14:59.577Z,32.06
2022-08-03T11:16:02.227Z,32.18
2022-08-03T11:16:59.841Z,31.96
2022-08-03T11:17:59.562Z,31.88
2022-08-03T11:19:00.134Z,31.95
2022-08-03T11:19:59.544Z,31.96
2022-08-03T11:20:59.531Z,31.99
2022-08-03T11:21:59.537Z,32.20
2022-08-03T11:22:59.482Z,32.43
2022-08-03T11:24:04.129Z,32.62
2022-08-03T11:24:59.456Z,32.69
2022-08-03T11:25:59.476Z,32.70
2022-08-03T11:27:03.041Z,32.67
2022-08-03T11:27:59.535Z,32.80
2022-08-03T11:28:59.425Z,32.93
2022-08-03T11:29:59.435Z,33.26
2022-08-03T11:30:59.822Z,33.67
2022-08-03T11:31:59.446Z,33.90
2022-08-03T11:32:59.377Z,34.07
2022-08-03T11:33:59.435Z,34.02
2022-08-03T11:35:00.308Z,33.74
2022-08-03T11:35:59.371Z,32.99
2022-08-03T11:36:59.363Z,32.59
2022-08-03T11:38:04.330Z,32.48
2022-08-03T11:38:59.312Z,32.59
2022-08-03T11:39:59.340Z,32.86
2022-08-03T11:40:59.326Z,32.74
2022-08-03T11:41:59.311Z,32.69
2022-08-03T11:42:59.281Z,32.36
2022-08-03T11:43:59.271Z,32.14
2022-08-03T11:44:59.668Z,32.02
2022-08-03T11:45:59.285Z,31.85
2022-08-03T11:46:59.275Z,31.24
2022-08-03T11:47:59.233Z,30.99
2022-08-03T11:48:59.275Z,31.21
2022-08-03T11:49:59.302Z,31.54
2022-08-03T11:50:59.189Z,31.73
2022-08-03T11:51:59.600Z,32.02
2022-08-03T11:52:59.193Z,32.03
2022-08-03T11:53:59.173Z,32.33
2022-08-03T11:54:59.162Z,32.67
2022-08-03T11:55:59.150Z,33.20
2022-08-03T11:56:59.158Z,33.73
2022-08-03T11:59:03.380Z,34.05
2022-08-03T11:59:25.690Z,34.14
2022-08-03T11:59:59.113Z,34.01
2022-08-03T12:00:59.113Z,34.14
2022-08-03T12:01:59.089Z,33.95
2022-08-03T12:02:59.150Z,33.58
2022-08-03T12:03:59.144Z,33.13
2022-08-03T12:04:59.070Z,33.13
2022-08-03T12:05:59.409Z,33.20
2022-08-03T12:06:59.071Z,33.37
2022-08-03T12:08:04.373Z,33.46
2022-08-03T12:08:59.032Z,33.30
2022-08-03T12:09:59.067Z,32.91
2022-08-03T12:11:00.025Z,32.98
2022-08-03T12:12:00.304Z,32.96
2022-08-03T12:12:59.450Z,32.62
2022-08-03T12:14:49.087Z,32.76
2022-08-03T12:14:58.980Z,32.93
2022-08-03T12:15:59.004Z,33.01
2022-08-03T12:16:58.968Z,33.34
2022-08-03T12:17:58.956Z,33.73
2022-08-03T12:18:58.959Z,34.14
2022-08-03T12:19:59.310Z,34.09
2022-08-03T12:20:58.905Z,34.31
2022-08-03T12:21:59.003Z,34.60
2022-08-03T12:22:58.894Z,34.61
2022-08-03T12:23:58.888Z,34.31
2022-08-03T12:24:58.973Z,34.32
2022-08-03T12:25:58.868Z,34.01
2022-08-03T12:27:00.023Z,34.00
2022-08-03T12:27:58.885Z,33.94
2022-08-03T12:28:58.836Z,33.95
2022-08-03T12:29:59.300Z,34.39
2022-08-03T12:30:58.818Z,34.88
2022-08-03T12:31:58.794Z,34.98
2022-08-03T12:32:58.801Z,34.94
2022-08-03T12:33:59.368Z,34.86
2022-08-03T12:35:00.183Z,34.83
2022-08-03T12:35:58.759Z,35.13
2022-08-03T12:36:58.786Z,35.36
2022-08-03T12:37:58.739Z,35.33
2022-08-03T12:38:58.724Z,34.99
2022-08-03T12:40:02.744Z,35.06
2022-08-03T12:40:58.718Z,35.39
2022-08-03T12:41:58.712Z,35.76
2022-08-03T12:42:58.708Z,35.97
2022-08-03T12:43:58.691Z,36.15
2022-08-03T12:44:58.679Z,36.31
2022-08-03T12:45:58.725Z,36.52
2022-08-03T12:46:58.967Z,36.60
2022-08-03T12:47:58.647Z,36.79
2022-08-03T12:48:58.741Z,37.01
2022-08-03T12:49:59.048Z,37.04
2022-08-03T12:50:58.860Z,36.68
2022-08-03T12:52:00.047Z,36.35